Aviation Digital Data Service (ADDS)

Output produced by METARs form (0914 UTC 29 March 2017)
found at http://aviationweather.gov/adds/metars/
 
KEWN 290910Z 2909/3006 31003KT 5SM BR BKN080 
     FM291300 02006KT 4SM BR BKN008 
     FM291500 04009KT P6SM BKN015 
     FM291700 03008KT P6SM SCT025